Eastlake, CO (80614)

01:55 AM MDT del 25 Agosto 2016 (GMT -0600)
Shadow Ridge | | Change Station

Alt. 5335 ft 39.94 °N, 104.94 °W | Updated 3 seconds ago

Clear
Sereno
53.6 °F
Sembra 53.6 °F
N
0.0
Vento Variabile Vento da SE
Gusts 0.0 mph

Oggi
Massima -- | Minima -- °F
--% Possibilità di precip.
Ieri
Massima -- | Minima -- °F
Precip. -- in
Pressione 30.22 in
Visibilità 7.0 miglia
Nuvole Sereno
Punto di rugiada 53 °F
Umidità 97%
Piovosità 0.00 in
Spessore del manto nevoso Non disponibile.
6:21 AM 7:41 PM
Gobba a levante, 48% visible
METAR KEIK 250735Z AUTO 00000KT 7SM CLR 09/09 A3022 RMK AO2 T00940088
Pressione 30.22 in
Visibilità 7.0 miglia
Nuvole Sereno
Punto di rugiada 53 °F
Umidità 97%
Piovosità 0.00 in
Spessore del manto nevoso Non disponibile.
6:21 AM 7:41 PM
Gobba a levante, 48% visible
METAR KEIK 250735Z AUTO 00000KT 7SM CLR 09/09 A3022 RMK AO2 T00940088

10-Day Weather Forecast

Almanac

Astronomia

Aug. 25, 2016 Alba Tramonto
Ora attuale
Crepuscolo civile
Crepuscolo nautico
Crepuscolo astronomico
Luna
Estensione della luce visibile
Lunghezza del giorno
Tomorrow will be .
, % of the Moon is Illuminated

Gli estremi di oggi

State Highs State Lows

Community

WunderPhotos

Upload Photos

1,934,814 foto caricate!

WunderBlog® & News

Nearby

Qualità dell'aria

  Qualità dell'aria Indice AQ Inquinante
Not available.

Profondità neve

Stazione Profondità Altitudine

Attività sismica

Città  Distanza Mag. Data & Ora
Minimo Magnitudo Mostrato è 2.5.

Temperature delle acque costiere

Località Temperatura

Stations

Stazioni meteo nelle vicinanze

Ubicazione della stazione Temp. Raffreddamento del vento Punto di rugiada Umidità Vento Precip. Alt. Aggiornato Tipo
                   

Watches & Warnings

There are currently no watches in effect.